sensor_id;sensor_type;location;lat;lon;timestamp;P1;durP1;ratioP1;P2;durP2;ratioP2
32872;SDS011;19224;52.462;16.898;2023-03-14T00:02:14;4.20;;;2.75;;
32872;SDS011;19224;52.462;16.898;2023-03-14T00:04:46;4.42;;;2.87;;
32872;SDS011;19224;52.462;16.898;2023-03-14T00:07:24;5.47;;;2.75;;
32872;SDS011;19224;52.462;16.898;2023-03-14T00:10:10;4.45;;;2.42;;
32872;SDS011;19224;52.462;16.898;2023-03-14T00:12:36;3.98;;;2.20;;
32872;SDS011;19224;52.462;16.898;2023-03-14T00:15:07;5.03;;;2.10;;
32872;SDS011;19224;52.462;16.898;2023-03-14T00:17:39;4.47;;;2.10;;
32872;SDS011;19224;52.462;16.898;2023-03-14T00:20:22;2.50;;;1.90;;
32872;SDS011;19224;52.462;16.898;2023-03-14T00:22:48;4.25;;;2.15;;
32872;SDS011;19224;52.462;16.898;2023-03-14T00:25:21;3.80;;;1.85;;
32872;SDS011;19224;52.462;16.898;2023-03-14T00:27:54;5.22;;;2.02;;
32872;SDS011;19224;52.462;16.898;2023-03-14T00:30:25;2.65;;;1.82;;
32872;SDS011;19224;52.462;16.898;2023-03-14T00:32:58;2.90;;;1.90;;
32872;SDS011;19224;52.462;16.898;2023-03-14T00:35:30;2.12;;;1.67;;
32872;SDS011;19224;52.462;16.898;2023-03-14T00:38:04;2.95;;;1.60;;
32872;SDS011;19224;52.462;16.898;2023-03-14T00:40:38;2.65;;;1.70;;
32872;SDS011;19224;52.462;16.898;2023-03-14T00:43:16;3.60;;;1.80;;
32872;SDS011;19224;52.462;16.898;2023-03-14T00:45:40;5.90;;;1.92;;
32872;SDS011;19224;52.462;16.898;2023-03-14T00:48:11;2.95;;;1.65;;
32872;SDS011;19224;52.462;16.898;2023-03-14T00:50:42;4.40;;;1.95;;
32872;SDS011;19224;52.462;16.898;2023-03-14T00:53:15;5.78;;;2.00;;
32872;SDS011;19224;52.462;16.898;2023-03-14T00:55:46;3.98;;;1.80;;
32872;SDS011;19224;52.462;16.898;2023-03-14T00:58:22;2.95;;;1.70;;
32872;SDS011;19224;52.462;16.898;2023-03-14T01:00:57;2.00;;;1.60;;
32872;SDS011;19224;52.462;16.898;2023-03-14T01:03:30;2.12;;;1.50;;
32872;SDS011;19224;52.462;16.898;2023-03-14T01:06:11;2.27;;;1.40;;
32872;SDS011;19224;52.462;16.898;2023-03-14T01:08:46;2.27;;;1.30;;
32872;SDS011;19224;52.462;16.898;2023-03-14T01:11:25;1.07;;;0.80;;
32872;SDS011;19224;52.462;16.898;2023-03-14T01:13:59;0.88;;;0.82;;
32872;SDS011;19224;52.462;16.898;2023-03-14T01:16:32;2.52;;;1.25;;
32872;SDS011;19224;52.462;16.898;2023-03-14T01:19:04;2.60;;;1.32;;
32872;SDS011;19224;52.462;16.898;2023-03-14T01:21:39;1.85;;;1.17;;
32872;SDS011;19224;52.462;16.898;2023-03-14T01:24:12;1.22;;;1.00;;
32872;SDS011;19224;52.462;16.898;2023-03-14T01:26:43;0.95;;;0.85;;
32872;SDS011;19224;52.462;16.898;2023-03-14T01:29:15;2.17;;;0.70;;
32872;SDS011;19224;52.462;16.898;2023-03-14T01:31:46;0.82;;;0.60;;
32872;SDS011;19224;52.462;16.898;2023-03-14T01:34:17;1.37;;;0.90;;
32872;SDS011;19224;52.462;16.898;2023-03-14T01:36:48;1.25;;;0.72;;
32872;SDS011;19224;52.462;16.898;2023-03-14T01:39:21;0.75;;;0.70;;
32872;SDS011;19224;52.462;16.898;2023-03-14T01:41:52;1.25;;;0.50;;
32872;SDS011;19224;52.462;16.898;2023-03-14T01:44:27;1.32;;;0.72;;
32872;SDS011;19224;52.462;16.898;2023-03-14T01:47:17;1.35;;;0.60;;
32872;SDS011;19224;52.462;16.898;2023-03-14T01:49:52;0.93;;;0.68;;
32872;SDS011;19224;52.462;16.898;2023-03-14T01:52:34;0.62;;;0.55;;
32872;SDS011;19224;52.462;16.898;2023-03-14T01:55:12;0.80;;;0.50;;
32872;SDS011;19224;52.462;16.898;2023-03-14T01:57:51;0.90;;;0.70;;
32872;SDS011;19224;52.462;16.898;2023-03-14T02:00:38;0.82;;;0.60;;
32872;SDS011;19224;52.462;16.898;2023-03-14T02:03:11;0.62;;;0.60;;
32872;SDS011;19224;52.462;16.898;2023-03-14T02:05:47;1.00;;;0.60;;
32872;SDS011;19224;52.462;16.898;2023-03-14T02:08:20;1.98;;;0.80;;
32872;SDS011;19224;52.462;16.898;2023-03-14T02:10:52;1.02;;;0.68;;
32872;SDS011;19224;52.462;16.898;2023-03-14T02:13:22;0.80;;;0.65;;
32872;SDS011;19224;52.462;16.898;2023-03-14T02:15:53;0.88;;;0.85;;
32872;SDS011;19224;52.462;16.898;2023-03-14T02:18:27;1.05;;;0.70;;
32872;SDS011;19224;52.462;16.898;2023-03-14T02:21:22;0.80;;;0.60;;
32872;SDS011;19224;52.462;16.898;2023-03-14T02:24:07;1.32;;;0.70;;
32872;SDS011;19224;52.462;16.898;2023-03-14T02:29:50;0.98;;;0.80;;
32872;SDS011;19224;52.462;16.898;2023-03-14T02:32:25;1.30;;;0.80;;
32872;SDS011;19224;52.462;16.898;2023-03-14T02:35:01;1.90;;;1.10;;
32872;SDS011;19224;52.462;16.898;2023-03-14T02:40:37;3.10;;;1.12;;
32872;SDS011;19224;52.462;16.898;2023-03-14T02:43:12;1.95;;;1.05;;
32872;SDS011;19224;52.462;16.898;2023-03-14T02:45:46;2.37;;;1.40;;
32872;SDS011;19224;52.462;16.898;2023-03-14T02:48:20;1.95;;;1.20;;
32872;SDS011;19224;52.462;16.898;2023-03-14T02:51:11;3.47;;;1.82;;
32872;SDS011;19224;52.462;16.898;2023-03-14T02:53:43;2.72;;;1.77;;
32872;SDS011;19224;52.462;16.898;2023-03-14T02:56:13;3.95;;;1.50;;
32872;SDS011;19224;52.462;16.898;2023-03-14T02:58:44;7.65;;;1.75;;
32872;SDS011;19224;52.462;16.898;2023-03-14T03:01:15;2.67;;;1.92;;
32872;SDS011;19224;52.462;16.898;2023-03-14T03:03:45;3.25;;;2.00;;
32872;SDS011;19224;52.462;16.898;2023-03-14T03:06:16;4.62;;;1.60;;
32872;SDS011;19224;52.462;16.898;2023-03-14T03:08:47;2.77;;;2.00;;
32872;SDS011;19224;52.462;16.898;2023-03-14T03:11:18;2.27;;;1.90;;
32872;SDS011;19224;52.462;16.898;2023-03-14T03:13:48;2.92;;;1.75;;
32872;SDS011;19224;52.462;16.898;2023-03-14T03:16:20;5.58;;;2.50;;
32872;SDS011;19224;52.462;16.898;2023-03-14T03:18:50;2.98;;;2.10;;
32872;SDS011;19224;52.462;16.898;2023-03-14T03:21:22;3.40;;;1.90;;
32872;SDS011;19224;52.462;16.898;2023-03-14T03:23:55;4.10;;;2.20;;
32872;SDS011;19224;52.462;16.898;2023-03-14T03:26:31;3.12;;;2.12;;
32872;SDS011;19224;52.462;16.898;2023-03-14T03:28:57;3.70;;;2.17;;
32872;SDS011;19224;52.462;16.898;2023-03-14T03:31:27;2.37;;;2.00;;
32872;SDS011;19224;52.462;16.898;2023-03-14T03:34:01;2.85;;;2.10;;
32872;SDS011;19224;52.462;16.898;2023-03-14T03:36:33;5.30;;;2.62;;
32872;SDS011;19224;52.462;16.898;2023-03-14T03:39:03;3.47;;;2.42;;
32872;SDS011;19224;52.462;16.898;2023-03-14T03:41:36;5.08;;;2.47;;
32872;SDS011;19224;52.462;16.898;2023-03-14T03:44:29;4.28;;;2.50;;
32872;SDS011;19224;52.462;16.898;2023-03-14T03:46:59;4.30;;;2.58;;
32872;SDS011;19224;52.462;16.898;2023-03-14T03:49:30;3.72;;;2.42;;
32872;SDS011;19224;52.462;16.898;2023-03-14T03:52:01;4.30;;;2.60;;
32872;SDS011;19224;52.462;16.898;2023-03-14T03:54:32;5.08;;;2.77;;
32872;SDS011;19224;52.462;16.898;2023-03-14T03:57:02;6.15;;;2.92;;
32872;SDS011;19224;52.462;16.898;2023-03-14T03:59:35;4.15;;;2.65;;
32872;SDS011;19224;52.462;16.898;2023-03-14T04:02:11;4.30;;;2.62;;
32872;SDS011;19224;52.462;16.898;2023-03-14T04:04:41;3.83;;;2.62;;
32872;SDS011;19224;52.462;16.898;2023-03-14T04:07:16;3.85;;;2.77;;
32872;SDS011;19224;52.462;16.898;2023-03-14T04:09:48;4.37;;;2.70;;
32872;SDS011;19224;52.462;16.898;2023-03-14T04:12:18;5.22;;;2.50;;
32872;SDS011;19224;52.462;16.898;2023-03-14T04:14:49;4.87;;;2.95;;
32872;SDS011;19224;52.462;16.898;2023-03-14T04:17:20;5.47;;;2.87;;
32872;SDS011;19224;52.462;16.898;2023-03-14T04:19:56;8.20;;;3.40;;
32872;SDS011;19224;52.462;16.898;2023-03-14T04:22:26;4.62;;;2.87;;
32872;SDS011;19224;52.462;16.898;2023-03-14T04:25:03;5.95;;;3.05;;
32872;SDS011;19224;52.462;16.898;2023-03-14T04:27:34;4.70;;;3.27;;
32872;SDS011;19224;52.462;16.898;2023-03-14T04:30:06;6.20;;;3.17;;
32872;SDS011;19224;52.462;16.898;2023-03-14T04:32:41;6.53;;;3.02;;
32872;SDS011;19224;52.462;16.898;2023-03-14T04:35:11;5.60;;;3.35;;
32872;SDS011;19224;52.462;16.898;2023-03-14T04:38:02;7.35;;;3.20;;
32872;SDS011;19224;52.462;16.898;2023-03-14T04:40:32;5.90;;;3.33;;
32872;SDS011;19224;52.462;16.898;2023-03-14T04:43:08;5.67;;;3.33;;
32872;SDS011;19224;52.462;16.898;2023-03-14T04:45:44;6.28;;;3.33;;
32872;SDS011;19224;52.462;16.898;2023-03-14T04:48:16;5.47;;;3.55;;
32872;SDS011;19224;52.462;16.898;2023-03-14T04:50:49;5.17;;;3.35;;
32872;SDS011;19224;52.462;16.898;2023-03-14T04:53:20;8.35;;;3.65;;
32872;SDS011;19224;52.462;16.898;2023-03-14T04:55:51;5.65;;;3.35;;
32872;SDS011;19224;52.462;16.898;2023-03-14T04:58:24;6.42;;;3.52;;
32872;SDS011;19224;52.462;16.898;2023-03-14T05:00:55;6.35;;;4.10;;
32872;SDS011;19224;52.462;16.898;2023-03-14T05:03:33;7.47;;;3.60;;
32872;SDS011;19224;52.462;16.898;2023-03-14T05:06:08;5.78;;;3.45;;
32872;SDS011;19224;52.462;16.898;2023-03-14T05:08:39;6.42;;;4.05;;
32872;SDS011;19224;52.462;16.898;2023-03-14T05:11:09;5.03;;;3.52;;
32872;SDS011;19224;52.462;16.898;2023-03-14T05:13:40;5.67;;;3.50;;
32872;SDS011;19224;52.462;16.898;2023-03-14T05:16:13;5.80;;;3.58;;
32872;SDS011;19224;52.462;16.898;2023-03-14T05:18:45;6.00;;;4.08;;
32872;SDS011;19224;52.462;16.898;2023-03-14T05:21:20;6.72;;;4.20;;
32872;SDS011;19224;52.462;16.898;2023-03-14T05:23:50;7.35;;;4.25;;
32872;SDS011;19224;52.462;16.898;2023-03-14T05:26:22;7.60;;;4.78;;
32872;SDS011;19224;52.462;16.898;2023-03-14T05:28:56;8.10;;;4.45;;
32872;SDS011;19224;52.462;16.898;2023-03-14T05:31:34;7.17;;;4.50;;
32872;SDS011;19224;52.462;16.898;2023-03-14T05:34:05;8.68;;;4.20;;
32872;SDS011;19224;52.462;16.898;2023-03-14T05:36:35;11.18;;;4.33;;
32872;SDS011;19224;52.462;16.898;2023-03-14T05:39:07;7.25;;;3.92;;
32872;SDS011;19224;52.462;16.898;2023-03-14T05:41:39;7.50;;;3.87;;
32872;SDS011;19224;52.462;16.898;2023-03-14T05:44:11;6.37;;;3.80;;
32872;SDS011;19224;52.462;16.898;2023-03-14T05:46:45;6.08;;;3.92;;
32872;SDS011;19224;52.462;16.898;2023-03-14T05:49:16;8.08;;;4.00;;
32872;SDS011;19224;52.462;16.898;2023-03-14T05:51:48;6.15;;;3.95;;
32872;SDS011;19224;52.462;16.898;2023-03-14T05:54:20;5.65;;;3.72;;
32872;SDS011;19224;52.462;16.898;2023-03-14T05:56:51;8.18;;;3.87;;
32872;SDS011;19224;52.462;16.898;2023-03-14T05:59:22;5.78;;;3.60;;
32872;SDS011;19224;52.462;16.898;2023-03-14T06:01:55;8.90;;;3.92;;
32872;SDS011;19224;52.462;16.898;2023-03-14T06:04:25;8.03;;;3.80;;
32872;SDS011;19224;52.462;16.898;2023-03-14T06:06:56;7.95;;;4.10;;
32872;SDS011;19224;52.462;16.898;2023-03-14T06:09:29;6.95;;;3.62;;
32872;SDS011;19224;52.462;16.898;2023-03-14T06:12:03;5.37;;;3.80;;
32872;SDS011;19224;52.462;16.898;2023-03-14T06:14:35;6.33;;;3.75;;
32872;SDS011;19224;52.462;16.898;2023-03-14T06:17:10;5.70;;;3.75;;
32872;SDS011;19224;52.462;16.898;2023-03-14T06:19:40;5.62;;;3.60;;
32872;SDS011;19224;52.462;16.898;2023-03-14T06:22:11;6.58;;;3.92;;
32872;SDS011;19224;52.462;16.898;2023-03-14T06:24:46;6.85;;;4.35;;
32872;SDS011;19224;52.462;16.898;2023-03-14T06:27:17;6.35;;;3.83;;
32872;SDS011;19224;52.462;16.898;2023-03-14T06:29:47;8.53;;;4.15;;
32872;SDS011;19224;52.462;16.898;2023-03-14T06:32:18;5.20;;;3.70;;
32872;SDS011;19224;52.462;16.898;2023-03-14T06:34:52;7.50;;;3.80;;
32872;SDS011;19224;52.462;16.898;2023-03-14T06:37:24;7.05;;;3.95;;
32872;SDS011;19224;52.462;16.898;2023-03-14T06:39:58;9.88;;;3.80;;
32872;SDS011;19224;52.462;16.898;2023-03-14T06:42:29;7.83;;;3.83;;
32872;SDS011;19224;52.462;16.898;2023-03-14T06:45:00;5.67;;;4.00;;
32872;SDS011;19224;52.462;16.898;2023-03-14T06:47:37;8.98;;;4.00;;
32872;SDS011;19224;52.462;16.898;2023-03-14T06:50:10;6.75;;;3.83;;
32872;SDS011;19224;52.462;16.898;2023-03-14T06:52:43;8.33;;;4.05;;
32872;SDS011;19224;52.462;16.898;2023-03-14T06:55:15;6.90;;;3.70;;
32872;SDS011;19224;52.462;16.898;2023-03-14T06:57:49;6.00;;;4.10;;
32872;SDS011;19224;52.462;16.898;2023-03-14T07:00:22;8.93;;;3.92;;
32872;SDS011;19224;52.462;16.898;2023-03-14T07:02:56;7.25;;;3.52;;
32872;SDS011;19224;52.462;16.898;2023-03-14T07:05:27;6.12;;;3.50;;
32872;SDS011;19224;52.462;16.898;2023-03-14T07:08:07;5.20;;;3.62;;
32872;SDS011;19224;52.462;16.898;2023-03-14T07:10:33;8.38;;;3.45;;
32872;SDS011;19224;52.462;16.898;2023-03-14T07:13:06;7.55;;;3.47;;
32872;SDS011;19224;52.462;16.898;2023-03-14T07:15:37;5.30;;;3.45;;
32872;SDS011;19224;52.462;16.898;2023-03-14T07:18:08;4.95;;;3.40;;
32872;SDS011;19224;52.462;16.898;2023-03-14T07:20:41;6.70;;;3.75;;
32872;SDS011;19224;52.462;16.898;2023-03-14T07:23:10;5.33;;;3.05;;
32872;SDS011;19224;52.462;16.898;2023-03-14T07:25:43;5.28;;;2.90;;
32872;SDS011;19224;52.462;16.898;2023-03-14T07:28:15;4.90;;;3.10;;
32872;SDS011;19224;52.462;16.898;2023-03-14T07:30:48;4.97;;;2.90;;
32872;SDS011;19224;52.462;16.898;2023-03-14T07:33:19;9.08;;;3.12;;
32872;SDS011;19224;52.462;16.898;2023-03-14T07:35:55;7.10;;;3.75;;
32872;SDS011;19224;52.462;16.898;2023-03-14T07:38:27;6.05;;;3.05;;
32872;SDS011;19224;52.462;16.898;2023-03-14T07:40:59;3.83;;;2.85;;
32872;SDS011;19224;52.462;16.898;2023-03-14T07:43:32;5.80;;;3.00;;
32872;SDS011;19224;52.462;16.898;2023-03-14T07:46:03;6.03;;;2.85;;
32872;SDS011;19224;52.462;16.898;2023-03-14T07:48:35;5.42;;;3.30;;
32872;SDS011;19224;52.462;16.898;2023-03-14T07:51:06;6.35;;;2.72;;
32872;SDS011;19224;52.462;16.898;2023-03-14T07:53:38;3.85;;;2.52;;
32872;SDS011;19224;52.462;16.898;2023-03-14T07:56:09;5.42;;;2.33;;
32872;SDS011;19224;52.462;16.898;2023-03-14T07:58:40;7.53;;;2.50;;
32872;SDS011;19224;52.462;16.898;2023-03-14T08:01:13;5.20;;;2.50;;
32872;SDS011;19224;52.462;16.898;2023-03-14T08:03:44;4.70;;;2.50;;
32872;SDS011;19224;52.462;16.898;2023-03-14T08:06:14;6.15;;;2.77;;
32872;SDS011;19224;52.462;16.898;2023-03-14T08:08:45;3.72;;;2.30;;
32872;SDS011;19224;52.462;16.898;2023-03-14T08:11:15;6.53;;;3.00;;
32872;SDS011;19224;52.462;16.898;2023-03-14T08:13:51;6.00;;;2.40;;
32872;SDS011;19224;52.462;16.898;2023-03-14T08:16:19;7.37;;;2.90;;
32872;SDS011;19224;52.462;16.898;2023-03-14T08:18:50;4.55;;;2.15;;
32872;SDS011;19224;52.462;16.898;2023-03-14T08:21:23;4.33;;;2.60;;
32872;SDS011;19224;52.462;16.898;2023-03-14T08:23:55;5.25;;;2.20;;
32872;SDS011;19224;52.462;16.898;2023-03-14T08:26:32;3.02;;;2.12;;
32872;SDS011;19224;52.462;16.898;2023-03-14T08:28:58;5.65;;;2.47;;
32872;SDS011;19224;52.462;16.898;2023-03-14T08:31:28;3.60;;;2.20;;
32872;SDS011;19224;52.462;16.898;2023-03-14T08:34:02;6.67;;;2.58;;
32872;SDS011;19224;52.462;16.898;2023-03-14T08:36:34;5.70;;;2.20;;
32872;SDS011;19224;52.462;16.898;2023-03-14T08:39:04;3.22;;;2.17;;
32872;SDS011;19224;52.462;16.898;2023-03-14T08:41:35;4.75;;;2.40;;
32872;SDS011;19224;52.462;16.898;2023-03-14T08:44:10;5.30;;;2.58;;
32872;SDS011;19224;52.462;16.898;2023-03-14T08:46:41;3.67;;;2.33;;
32872;SDS011;19224;52.462;16.898;2023-03-14T08:49:11;5.87;;;2.40;;
32872;SDS011;19224;52.462;16.898;2023-03-14T08:51:43;3.90;;;2.42;;
32872;SDS011;19224;52.462;16.898;2023-03-14T08:54:15;5.92;;;2.37;;
32872;SDS011;19224;52.462;16.898;2023-03-14T08:56:47;6.33;;;2.90;;
32872;SDS011;19224;52.462;16.898;2023-03-14T08:59:17;5.25;;;2.62;;
32872;SDS011;19224;52.462;16.898;2023-03-14T09:01:48;3.85;;;2.33;;
32872;SDS011;19224;52.462;16.898;2023-03-14T09:04:22;4.80;;;2.30;;
32872;SDS011;19224;52.462;16.898;2023-03-14T09:06:52;5.42;;;2.75;;
32872;SDS011;19224;52.462;16.898;2023-03-14T09:09:25;4.80;;;1.98;;
32872;SDS011;19224;52.462;16.898;2023-03-14T09:11:58;4.33;;;2.15;;
32872;SDS011;19224;52.462;16.898;2023-03-14T09:14:29;4.55;;;1.85;;
32872;SDS011;19224;52.462;16.898;2023-03-14T09:17:00;4.80;;;2.12;;
32872;SDS011;19224;52.462;16.898;2023-03-14T09:19:33;4.60;;;2.05;;
32872;SDS011;19224;52.462;16.898;2023-03-14T09:22:09;5.85;;;2.30;;
32872;SDS011;19224;52.462;16.898;2023-03-14T09:24:42;4.50;;;2.10;;
32872;SDS011;19224;52.462;16.898;2023-03-14T09:27:13;5.15;;;2.08;;
32872;SDS011;19224;52.462;16.898;2023-03-14T09:29:44;5.28;;;2.40;;
32872;SDS011;19224;52.462;16.898;2023-03-14T09:32:23;4.33;;;2.40;;
32872;SDS011;19224;52.462;16.898;2023-03-14T09:34:54;3.98;;;2.00;;
32872;SDS011;19224;52.462;16.898;2023-03-14T09:37:24;4.70;;;1.90;;
32872;SDS011;19224;52.462;16.898;2023-03-14T09:39:57;7.97;;;2.47;;
32872;SDS011;19224;52.462;16.898;2023-03-14T09:42:28;5.12;;;2.10;;
32872;SDS011;19224;52.462;16.898;2023-03-14T09:57:57;4.62;;;2.30;;
32872;SDS011;19224;52.462;16.898;2023-03-14T10:00:31;7.58;;;3.15;;
32872;SDS011;19224;52.462;16.898;2023-03-14T10:05:49;9.65;;;2.50;;
32872;SDS011;19224;52.462;16.898;2023-03-14T10:08:19;6.80;;;2.40;;
32872;SDS011;19224;52.462;16.898;2023-03-14T10:10:50;3.52;;;2.30;;
32872;SDS011;19224;52.462;16.898;2023-03-14T10:13:23;6.72;;;2.22;;
32872;SDS011;19224;52.462;16.898;2023-03-14T10:16:01;4.67;;;2.60;;
32872;SDS011;19224;52.462;16.898;2023-03-14T10:18:37;6.53;;;2.50;;
32872;SDS011;19224;52.462;16.898;2023-03-14T10:21:17;9.10;;;3.05;;
32872;SDS011;19224;52.462;16.898;2023-03-14T10:26:59;7.08;;;2.20;;
32872;SDS011;19224;52.462;16.898;2023-03-14T10:29:50;6.58;;;2.42;;
32872;SDS011;19224;52.462;16.898;2023-03-14T10:32:20;5.85;;;2.33;;
32872;SDS011;19224;52.462;16.898;2023-03-14T10:35:18;4.78;;;2.30;;
32872;SDS011;19224;52.462;16.898;2023-03-14T10:37:57;7.25;;;2.40;;
32872;SDS011;19224;52.462;16.898;2023-03-14T10:40:37;4.17;;;2.22;;
32872;SDS011;19224;52.462;16.898;2023-03-14T10:43:11;4.60;;;2.05;;
32872;SDS011;19224;52.462;16.898;2023-03-14T10:45:42;6.08;;;2.10;;
32872;SDS011;19224;52.462;16.898;2023-03-14T10:48:18;7.42;;;2.30;;
32872;SDS011;19224;52.462;16.898;2023-03-14T10:51:02;5.67;;;2.25;;
32872;SDS011;19224;52.462;16.898;2023-03-14T10:53:59;4.12;;;2.12;;
32872;SDS011;19224;52.462;16.898;2023-03-14T10:56:44;4.90;;;2.47;;
32872;SDS011;19224;52.462;16.898;2023-03-14T10:59:16;3.15;;;2.02;;
32872;SDS011;19224;52.462;16.898;2023-03-14T11:07:44;7.65;;;2.33;;
32872;SDS011;19224;52.462;16.898;2023-03-14T11:10:19;4.08;;;1.90;;
32872;SDS011;19224;52.462;16.898;2023-03-14T11:15:56;6.53;;;2.33;;
32872;SDS011;19224;52.462;16.898;2023-03-14T11:19:03;5.22;;;2.12;;
32872;SDS011;19224;52.462;16.898;2023-03-14T11:22:08;9.63;;;2.67;;
32872;SDS011;19224;52.462;16.898;2023-03-14T11:31:01;3.58;;;2.30;;
32872;SDS011;19224;52.462;16.898;2023-03-14T11:33:37;10.53;;;2.65;;
32872;SDS011;19224;52.462;16.898;2023-03-14T11:36:13;5.47;;;1.90;;
32872;SDS011;19224;52.462;16.898;2023-03-14T11:38:54;8.03;;;2.22;;
32872;SDS011;19224;52.462;16.898;2023-03-14T11:41:39;3.87;;;2.20;;
32872;SDS011;19224;52.462;16.898;2023-03-14T11:44:18;4.92;;;2.37;;
32872;SDS011;19224;52.462;16.898;2023-03-14T11:49:50;7.75;;;2.12;;
32872;SDS011;19224;52.462;16.898;2023-03-14T11:52:33;9.53;;;2.75;;
32872;SDS011;19224;52.462;16.898;2023-03-14T11:55:12;5.50;;;2.27;;
32872;SDS011;19224;52.462;16.898;2023-03-14T11:57:58;5.58;;;2.10;;
32872;SDS011;19224;52.462;16.898;2023-03-14T12:00:48;7.67;;;2.22;;
32872;SDS011;19224;52.462;16.898;2023-03-14T12:03:28;6.12;;;2.27;;
32872;SDS011;19224;52.462;16.898;2023-03-14T12:08:58;5.30;;;2.05;;
32872;SDS011;19224;52.462;16.898;2023-03-14T12:11:36;6.70;;;2.05;;
32872;SDS011;19224;52.462;16.898;2023-03-14T12:14:23;4.55;;;2.50;;
32872;SDS011;19224;52.462;16.898;2023-03-14T12:20:00;5.37;;;2.15;;
32872;SDS011;19224;52.462;16.898;2023-03-14T12:22:44;4.97;;;1.45;;
32872;SDS011;19224;52.462;16.898;2023-03-14T12:25:27;4.22;;;1.52;;
32872;SDS011;19224;52.462;16.898;2023-03-14T12:28:05;6.22;;;1.72;;
32872;SDS011;19224;52.462;16.898;2023-03-14T12:30:49;5.47;;;1.50;;
32872;SDS011;19224;52.462;16.898;2023-03-14T12:33:21;3.95;;;1.27;;
32872;SDS011;19224;52.462;16.898;2023-03-14T12:36:03;2.58;;;1.17;;
32872;SDS011;19224;52.462;16.898;2023-03-14T12:41:35;3.10;;;1.02;;
32872;SDS011;19224;52.462;16.898;2023-03-14T12:49:53;16.55;;;4.83;;
32872;SDS011;19224;52.462;16.898;2023-03-14T12:52:36;16.87;;;8.30;;
32872;SDS011;19224;52.462;16.898;2023-03-14T12:55:24;5.17;;;2.55;;
32872;SDS011;19224;52.462;16.898;2023-03-14T13:00:54;6.42;;;1.95;;
32872;SDS011;19224;52.462;16.898;2023-03-14T13:03:45;3.72;;;0.90;;
32872;SDS011;19224;52.462;16.898;2023-03-14T13:12:11;2.52;;;1.60;;
32872;SDS011;19224;52.462;16.898;2023-03-14T13:14:45;8.13;;;2.98;;
32872;SDS011;19224;52.462;16.898;2023-03-14T13:17:22;15.53;;;6.12;;
32872;SDS011;19224;52.462;16.898;2023-03-14T13:19:57;2.67;;;1.37;;
32872;SDS011;19224;52.462;16.898;2023-03-14T13:22:33;4.95;;;2.20;;
32872;SDS011;19224;52.462;16.898;2023-03-14T13:25:10;7.10;;;3.17;;
32872;SDS011;19224;52.462;16.898;2023-03-14T13:27:40;3.35;;;2.30;;
32872;SDS011;19224;52.462;16.898;2023-03-14T13:30:18;5.45;;;1.42;;
32872;SDS011;19224;52.462;16.898;2023-03-14T13:32:57;2.60;;;0.98;;
32872;SDS011;19224;52.462;16.898;2023-03-14T13:35:38;2.42;;;1.60;;
32872;SDS011;19224;52.462;16.898;2023-03-14T13:38:24;5.90;;;2.67;;
32872;SDS011;19224;52.462;16.898;2023-03-14T13:40:58;5.40;;;1.85;;
32872;SDS011;19224;52.462;16.898;2023-03-14T13:43:36;4.42;;;1.98;;
32872;SDS011;19224;52.462;16.898;2023-03-14T13:46:16;7.42;;;1.90;;
32872;SDS011;19224;52.462;16.898;2023-03-14T13:48:56;4.70;;;1.50;;
32872;SDS011;19224;52.462;16.898;2023-03-14T13:51:29;2.20;;;1.00;;
32872;SDS011;19224;52.462;16.898;2023-03-14T13:54:02;2.60;;;1.20;;
32872;SDS011;19224;52.462;16.898;2023-03-14T13:56:32;5.37;;;1.57;;
32872;SDS011;19224;52.462;16.898;2023-03-14T13:59:03;2.02;;;1.00;;
32872;SDS011;19224;52.462;16.898;2023-03-14T14:01:34;4.70;;;1.20;;
32872;SDS011;19224;52.462;16.898;2023-03-14T14:04:14;5.67;;;2.12;;
32872;SDS011;19224;52.462;16.898;2023-03-14T14:06:45;14.87;;;6.20;;
32872;SDS011;19224;52.462;16.898;2023-03-14T14:09:38;4.03;;;1.57;;
32872;SDS011;19224;52.462;16.898;2023-03-14T14:17:48;4.33;;;1.57;;
32872;SDS011;19224;52.462;16.898;2023-03-14T14:20:22;12.35;;;4.60;;
32872;SDS011;19224;52.462;16.898;2023-03-14T14:23:04;7.83;;;2.22;;
32872;SDS011;19224;52.462;16.898;2023-03-14T14:25:38;3.17;;;1.52;;
32872;SDS011;19224;52.462;16.898;2023-03-14T14:28:17;4.92;;;2.42;;
32872;SDS011;19224;52.462;16.898;2023-03-14T14:30:59;5.20;;;1.62;;
32872;SDS011;19224;52.462;16.898;2023-03-14T14:33:43;4.78;;;1.40;;
32872;SDS011;19224;52.462;16.898;2023-03-14T14:36:15;4.92;;;1.15;;
32872;SDS011;19224;52.462;16.898;2023-03-14T14:41:43;6.60;;;1.60;;
32872;SDS011;19224;52.462;16.898;2023-03-14T14:44:17;2.17;;;1.37;;
32872;SDS011;19224;52.462;16.898;2023-03-14T14:47:01;4.33;;;1.52;;
32872;SDS011;19224;52.462;16.898;2023-03-14T14:49:34;4.72;;;1.40;;
32872;SDS011;19224;52.462;16.898;2023-03-14T14:52:14;2.65;;;1.37;;
32872;SDS011;19224;52.462;16.898;2023-03-14T14:54:52;3.52;;;1.10;;
32872;SDS011;19224;52.462;16.898;2023-03-14T14:57:30;2.55;;;1.42;;
32872;SDS011;19224;52.462;16.898;2023-03-14T15:00:06;2.95;;;1.10;;
32872;SDS011;19224;52.462;16.898;2023-03-14T15:02:44;3.65;;;1.00;;
32872;SDS011;19224;52.462;16.898;2023-03-14T15:05:18;2.47;;;1.30;;
32872;SDS011;19224;52.462;16.898;2023-03-14T15:07:51;4.78;;;1.60;;
32872;SDS011;19224;52.462;16.898;2023-03-14T15:10:22;2.77;;;1.40;;
32872;SDS011;19224;52.462;16.898;2023-03-14T15:12:54;6.10;;;1.40;;
32872;SDS011;19224;52.462;16.898;2023-03-14T15:15:25;3.20;;;1.40;;
32872;SDS011;19224;52.462;16.898;2023-03-14T15:17:55;5.05;;;1.40;;
32872;SDS011;19224;52.462;16.898;2023-03-14T15:20:26;4.33;;;1.70;;
32872;SDS011;19224;52.462;16.898;2023-03-14T15:22:56;3.95;;;1.82;;
32872;SDS011;19224;52.462;16.898;2023-03-14T15:25:26;6.35;;;1.90;;
32872;SDS011;19224;52.462;16.898;2023-03-14T15:27:57;3.55;;;2.15;;
32872;SDS011;19224;52.462;16.898;2023-03-14T15:30:27;3.87;;;1.77;;
32872;SDS011;19224;52.462;16.898;2023-03-14T15:32:58;3.95;;;1.67;;
32872;SDS011;19224;52.462;16.898;2023-03-14T15:35:28;4.22;;;1.80;;
32872;SDS011;19224;52.462;16.898;2023-03-14T15:37:59;6.30;;;2.02;;
32872;SDS011;19224;52.462;16.898;2023-03-14T15:40:30;3.83;;;1.80;;
32872;SDS011;19224;52.462;16.898;2023-03-14T15:43:01;3.87;;;2.10;;
32872;SDS011;19224;52.462;16.898;2023-03-14T15:45:32;7.42;;;2.45;;
32872;SDS011;19224;52.462;16.898;2023-03-14T15:48:03;4.47;;;2.00;;
32872;SDS011;19224;52.462;16.898;2023-03-14T15:50:34;9.88;;;2.00;;
32872;SDS011;19224;52.462;16.898;2023-03-14T15:53:04;4.37;;;1.95;;
32872;SDS011;19224;52.462;16.898;2023-03-14T15:55:35;4.58;;;1.62;;
32872;SDS011;19224;52.462;16.898;2023-03-14T15:58:05;5.62;;;2.12;;
32872;SDS011;19224;52.462;16.898;2023-03-14T16:00:45;4.53;;;1.70;;
32872;SDS011;19224;52.462;16.898;2023-03-14T16:03:16;6.22;;;2.80;;
32872;SDS011;19224;52.462;16.898;2023-03-14T16:05:47;7.15;;;2.00;;
32872;SDS011;19224;52.462;16.898;2023-03-14T16:08:17;3.92;;;1.87;;
32872;SDS011;19224;52.462;16.898;2023-03-14T16:10:48;5.25;;;2.33;;
32872;SDS011;19224;52.462;16.898;2023-03-14T16:13:18;4.22;;;2.00;;
32872;SDS011;19224;52.462;16.898;2023-03-14T16:15:52;9.03;;;2.60;;
32872;SDS011;19224;52.462;16.898;2023-03-14T16:18:29;6.35;;;3.37;;
32872;SDS011;19224;52.462;16.898;2023-03-14T16:21:03;6.30;;;2.30;;
32872;SDS011;19224;52.462;16.898;2023-03-14T16:23:43;7.92;;;2.55;;
32872;SDS011;19224;52.462;16.898;2023-03-14T16:26:14;8.45;;;2.27;;
32872;SDS011;19224;52.462;16.898;2023-03-14T16:28:47;5.65;;;2.40;;
32872;SDS011;19224;52.462;16.898;2023-03-14T16:31:18;5.30;;;2.50;;